Time;durP1;ratioP1;P1;durP2;ratioP2;P2;SDS_P1;SDS_P2;PMS_P1;PMS_P2;Temp;Humidity;BMP_temperature;BMP_pressure;BME280_temperature;BME280_humidity;BME280_pressure;Samples;Min_cycle;Max_cycle;Signal;HPM_P1;HPM_P2
2023/12/20 00:01:16;;;;;;;10.93;1.92;;;;;;;-146.27;82.16;33190.19;5065875;28;20028;-71
2023/12/20 00:03:42;;;;;;;6.60;1.73;;;;;;;-146.27;82.06;33188.19;5063861;28;20028;-71
2023/12/20 00:06:07;;;;;;;11.48;2.17;;;;;;;-146.27;82.13;33132.66;5068327;28;20029;-69
2023/12/20 00:08:33;;;;;;;11.68;1.92;;;;;;;-146.27;81.79;33188.19;5068781;28;20028;-70
2023/12/20 00:10:58;;;;;;;13.70;2.55;;;;;;;-146.27;81.34;33144.56;5069700;28;20389;-70
2023/12/20 00:13:23;;;;;;;15.68;2.72;;;;;;;-146.27;81.75;33215.97;5070753;28;20179;-70
2023/12/20 00:15:49;;;;;;;13.05;2.83;;;;;;;-146.27;81.73;33196.13;5068184;28;20064;-70
2023/12/20 00:18:14;;;;;;;11.60;2.33;;;;;;;-146.27;81.57;33208.03;5060079;28;20449;-70
2023/12/20 00:20:39;;;;;;;17.40;2.90;;;;;;;-146.27;81.20;33156.47;5055506;28;20081;-70
2023/12/20 00:23:05;;;;;;;17.23;2.83;;;;;;;-146.27;80.47;33176.31;5070019;28;20020;-70
2023/12/20 00:25:30;;;;;;;15.63;2.88;;;;;;;-146.27;80.32;33106.84;5070414;28;20085;-70
2023/12/20 00:27:55;;;;;;;14.90;2.03;;;;;;;-146.27;80.61;33148.53;5059597;28;20058;-71
2023/12/20 00:30:21;;;;;;;16.77;2.38;;;;;;;-146.27;80.59;33120.75;5055823;28;20028;-71
2023/12/20 00:32:46;;;;;;;12.15;2.90;;;;;;;-146.27;80.10;33073.13;5056925;28;20029;-71
2023/12/20 00:35:13;;;;;;;17.70;2.65;;;;;;;-146.27;80.21;33096.94;5062010;28;20055;-71
2023/12/20 00:37:39;;;;;;;14.40;1.77;;;;;;;-146.27;81.25;33215.97;5057763;28;20392;-70
2023/12/20 00:40:05;;;;;;;12.73;2.47;;;;;;;-146.27;80.03;33148.53;5066093;28;20060;-71
2023/12/20 00:42:30;;;;;;;17.75;2.55;;;;;;;-146.27;80.11;33160.44;5054486;28;20464;-71
2023/12/20 00:44:55;;;;;;;29.65;3.30;;;;;;;-146.27;80.26;33172.34;5061627;28;20044;-71
2023/12/20 00:47:22;;;;;;;13.77;2.58;;;;;;;-146.27;79.92;33136.63;5069154;28;20069;-70
2023/12/20 00:49:47;;;;;;;21.77;3.15;;;;;;;-146.27;79.65;33144.56;5057168;28;20028;-71
2023/12/20 00:52:12;;;;;;;25.98;3.55;;;;;;;-146.27;80.13;33178.28;5058070;28;20032;-71
2023/12/20 00:54:38;;;;;;;13.68;2.45;;;;;;;-146.27;79.89;33116.78;5059719;28;20021;-70
2023/12/20 00:57:03;;;;;;;16.70;2.55;;;;;;;-146.27;80.02;33206.06;5061043;28;20096;-70
2023/12/20 00:59:29;;;;;;;16.58;2.03;;;;;;;-146.27;79.71;33104.88;5063651;28;20059;-69
2023/12/20 01:01:54;;;;;;;17.20;2.78;;;;;;;-146.27;80.32;33140.59;5063078;28;20105;-70
2023/12/20 01:04:19;;;;;;;17.70;2.83;;;;;;;-146.27;80.62;33208.03;5063374;28;20056;-72
2023/12/20 01:06:45;;;;;;;15.43;3.08;;;;;;;-146.27;80.07;33168.38;5066655;28;20047;-71
2023/12/20 01:09:10;;;;;;;19.50;2.88;;;;;;;-146.27;80.68;33212.00;5068179;28;20330;-70
2023/12/20 01:11:35;;;;;;;22.05;4.13;;;;;;;-146.27;80.62;33168.38;5072285;28;20027;-71
2023/12/20 01:14:01;;;;;;;14.95;2.80;;;;;;;-146.27;80.41;33158.44;5075345;28;20024;-71
2023/12/20 01:16:26;;;;;;;14.52;1.98;;;;;;;-146.27;80.64;33134.63;5068093;28;20023;-70
2023/12/20 01:18:51;;;;;;;21.00;3.40;;;;;;;-146.27;80.30;33104.88;5066442;28;20028;-70
2023/12/20 01:21:17;;;;;;;17.80;2.40;;;;;;;-146.27;80.58;33182.25;5055410;28;22043;-71
2023/12/20 01:23:43;;;;;;;18.63;2.05;;;;;;;-146.27;80.27;33136.63;5067012;28;20021;-69
2023/12/20 01:26:09;;;;;;;15.55;2.25;;;;;;;-146.27;80.59;33152.50;5067919;28;20101;-71
2023/12/20 01:28:34;;;;;;;16.15;2.20;;;;;;;-146.27;80.41;33148.53;5069920;28;20063;-70
2023/12/20 01:30:59;;;;;;;23.08;3.22;;;;;;;-146.27;79.83;33092.97;5069022;28;20075;-70
2023/12/20 01:33:25;;;;;;;20.08;2.55;;;;;;;-146.27;79.90;33160.44;5069328;28;20048;-70
2023/12/20 01:35:50;;;;;;;19.27;1.95;;;;;;;-146.27;79.84;33150.50;5067390;28;20036;-70
2023/12/20 01:38:18;;;;;;;19.42;2.20;;;;;;;-146.27;79.58;33130.66;5056783;28;20020;-70
2023/12/20 01:40:44;;;;;;;18.05;2.40;;;;;;;-146.27;79.53;33100.91;5068498;28;20040;-70
2023/12/20 01:43:09;;;;;;;12.65;2.10;;;;;;;-146.27;79.31;33154.47;5070121;28;20024;-69
2023/12/20 01:45:35;;;;;;;15.40;2.90;;;;;;;-146.27;79.06;33091.00;5068036;28;20403;-70
2023/12/20 01:48:02;;;;;;;19.02;3.00;;;;;;;-146.27;79.28;33092.97;5068935;28;20036;-71
2023/12/20 01:50:29;;;;;;;16.77;2.60;;;;;;;-146.27;79.72;33152.50;5060168;28;20383;-70
2023/12/20 01:52:57;;;;;;;24.92;2.55;;;;;;;-146.27;79.31;33081.06;5067838;28;20049;-69
2023/12/20 01:55:24;;;;;;;18.27;3.95;;;;;;;-146.27;79.51;33104.88;5054532;28;20086;-71
2023/12/20 01:57:50;;;;;;;15.52;2.60;;;;;;;-146.27;80.04;33148.53;5068964;28;20032;-71
2023/12/20 02:00:16;;;;;;;17.60;3.55;;;;;;;-146.27;79.50;33110.81;5070368;28;20040;-71
2023/12/20 02:02:44;;;;;;;17.88;2.30;;;;;;;-146.27;79.63;33112.81;5068033;28;20025;-69
2023/12/20 02:05:11;;;;;;;19.60;2.53;;;;;;;-146.27;79.61;33144.56;5062344;28;20047;-71
2023/12/20 02:07:36;;;;;;;14.27;2.38;;;;;;;-146.27;79.05;33110.81;5064176;28;20103;-70
2023/12/20 02:10:03;;;;;;;15.10;2.53;;;;;;;-146.27;78.73;33100.91;5071164;28;20107;-70
2023/12/20 02:12:29;;;;;;;22.67;3.40;;;;;;;-146.27;79.11;33152.50;5078606;28;20328;-69
2023/12/20 02:14:54;;;;;;;23.70;2.42;;;;;;;-146.27;79.32;33096.94;5067717;28;20028;-70
2023/12/20 02:17:20;;;;;;;20.33;2.35;;;;;;;-146.27;79.23;33142.56;5067990;28;20051;-69
2023/12/20 02:19:45;;;;;;;22.25;2.30;;;;;;;-146.27;79.42;33122.72;5068937;28;20110;-70
2023/12/20 02:22:11;;;;;;;13.50;3.20;;;;;;;-146.27;79.13;33085.03;5067694;28;20033;-69
2023/12/20 02:24:37;;;;;;;14.40;3.05;;;;;;;-146.27;79.09;33152.50;5065988;28;20025;-70
2023/12/20 02:27:03;;;;;;;21.77;2.28;;;;;;;-146.27;79.22;33124.72;5069758;28;20094;-70
2023/12/20 02:29:28;;;;;;;21.17;2.40;;;;;;;-146.27;79.16;33156.47;5061649;28;20534;-70
2023/12/20 02:31:53;;;;;;;19.15;3.35;;;;;;;-146.27;78.96;33166.38;5066421;28;20052;-69
2023/12/20 02:34:19;;;;;;;16.52;2.70;;;;;;;-146.27;79.11;33208.03;5062240;28;20083;-70
2023/12/20 02:36:44;;;;;;;15.55;2.47;;;;;;;-146.27;79.16;33223.91;5062404;28;20123;-70
2023/12/20 02:39:09;;;;;;;15.77;2.28;;;;;;;-146.27;78.97;33136.63;5067529;28;20028;-70
2023/12/20 02:41:35;;;;;;;19.15;2.63;;;;;;;-146.27;78.94;33045.34;5062487;28;20381;-70
2023/12/20 02:44:02;;;;;;;20.40;2.55;;;;;;;-146.27;79.61;33212.00;5067842;28;20719;-70
2023/12/20 02:46:27;;;;;;;17.13;2.83;;;;;;;-146.27;79.27;33180.28;5068010;28;20050;-69
2023/12/20 02:48:52;;;;;;;18.42;2.63;;;;;;;-146.27;79.36;33100.91;5073643;28;20132;-69
2023/12/20 02:51:18;;;;;;;20.75;3.10;;;;;;;-146.27;79.66;33152.50;5075627;28;20021;-70
2023/12/20 02:53:43;;;;;;;18.48;3.20;;;;;;;-146.27;79.14;33178.28;5093550;28;20044;-70
2023/12/20 02:56:08;;;;;;;17.00;2.45;;;;;;;-146.27;78.72;33051.31;5076725;28;20040;-70
2023/12/20 02:58:34;;;;;;;20.50;3.38;;;;;;;-146.27;78.95;33144.56;5069217;28;20444;-70
2023/12/20 03:00:59;;;;;;;18.35;2.47;;;;;;;-146.27;79.62;33233.84;5072039;28;20118;-70
2023/12/20 03:03:25;;;;;;;22.45;3.75;;;;;;;-146.27;79.44;33206.06;5077615;28;20070;-70
2023/12/20 03:05:50;;;;;;;17.90;2.67;;;;;;;-146.27;79.51;33223.91;5067078;28;20052;-69
2023/12/20 03:08:15;;;;;;;12.02;2.45;;;;;;;-146.27;79.96;33204.06;5069189;28;20173;-69
2023/12/20 03:10:41;;;;;;;13.90;2.80;;;;;;;-146.27;79.48;33176.31;5054397;28;20025;-69
2023/12/20 03:13:06;;;;;;;22.75;2.55;;;;;;;-146.27;79.37;33200.09;5067751;28;20040;-70
2023/12/20 03:15:32;;;;;;;22.17;2.95;;;;;;;-146.27;79.09;33120.75;5068602;28;20031;-69
2023/12/20 03:17:58;;;;;;;16.58;2.25;;;;;;;-146.27;79.01;33140.59;5071294;28;20028;-68
2023/12/20 03:20:25;;;;;;;18.77;3.08;;;;;;;-146.27;78.84;33168.38;5072403;28;20028;-70
2023/12/20 03:22:51;;;;;;;18.58;3.33;;;;;;;-146.27;78.60;33150.50;5073812;28;20047;-70
2023/12/20 03:25:16;;;;;;;15.68;2.55;;;;;;;-146.27;78.41;33160.44;5060746;28;20037;-71
2023/12/20 03:27:41;;;;;;;10.55;2.33;;;;;;;-146.27;78.24;33202.09;5065577;28;20016;-68
2023/12/20 03:30:07;;;;;;;23.70;2.70;;;;;;;-146.27;78.02;33156.47;5065806;28;20357;-68
2023/12/20 03:32:33;;;;;;;16.35;2.47;;;;;;;-146.27;77.30;33164.41;5067891;28;20035;-68
2023/12/20 03:34:58;;;;;;;11.52;2.15;;;;;;;-146.27;77.30;33172.34;5063003;28;20036;-68
2023/12/20 03:37:23;;;;;;;21.25;2.30;;;;;;;-146.27;77.47;33146.53;5067012;28;20055;-70
2023/12/20 03:39:48;;;;;;;10.20;2.22;;;;;;;-146.27;77.66;33180.28;5070413;28;20043;-70
2023/12/20 03:42:14;;;;;;;19.95;2.95;;;;;;;-146.27;77.50;33144.56;5068715;28;20468;-71
2023/12/20 03:44:40;;;;;;;16.95;2.63;;;;;;;-146.27;78.38;33239.78;5069071;28;20379;-70
2023/12/20 03:47:06;;;;;;;14.63;2.10;;;;;;;-146.27;77.78;33120.75;5069748;28;20030;-71
2023/12/20 03:49:31;;;;;;;20.38;2.80;;;;;;;-146.27;77.72;33162.41;5070109;28;20472;-70
2023/12/20 03:51:56;;;;;;;15.93;2.50;;;;;;;-146.27;77.80;33174.31;5079210;28;20031;-70
2023/12/20 03:54:22;;;;;;;18.33;2.80;;;;;;;-146.27;78.17;33176.31;5075512;28;20028;-70
2023/12/20 03:56:47;;;;;;;24.80;3.03;;;;;;;-146.27;78.23;33142.56;5068390;28;20017;-70
2023/12/20 03:59:12;;;;;;;15.75;2.35;;;;;;;-146.27;79.14;33182.25;5066794;28;20043;-69
2023/12/20 04:01:38;;;;;;;19.35;3.47;;;;;;;-146.27;78.89;33148.53;5065448;28;20031;-69
2023/12/20 04:04:03;;;;;;;21.13;2.70;;;;;;;-146.27;78.94;33148.53;5073342;28;20033;-69
2023/12/20 04:06:29;;;;;;;21.83;2.90;;;;;;;-146.27;79.48;33202.09;5061768;28;20055;-69
2023/12/20 04:08:54;;;;;;;24.52;2.50;;;;;;;-146.27;78.98;33182.25;5068400;28;20051;-69
2023/12/20 04:11:19;;;;;;;24.98;2.97;;;;;;;-146.27;80.12;33267.56;5065305;28;20035;-70
2023/12/20 04:13:45;;;;;;;19.98;2.88;;;;;;;-146.27;79.55;33217.97;5069150;28;20460;-70
2023/12/20 04:16:10;;;;;;;16.90;3.20;;;;;;;-146.27;80.01;33221.94;5072276;28;20392;-70
2023/12/20 04:18:36;;;;;;;11.85;2.65;;;;;;;-146.27;79.48;33172.34;5071317;28;20021;-69
2023/12/20 04:21:01;;;;;;;20.00;3.15;;;;;;;-146.27;79.67;33229.88;5083349;28;20031;-71
2023/12/20 04:23:27;;;;;;;11.30;2.47;;;;;;;-146.27;79.50;33223.91;5069308;28;20385;-70
2023/12/20 04:25:53;;;;;;;16.20;2.50;;;;;;;-146.27;78.66;33136.63;5067578;28;20115;-70
2023/12/20 04:28:18;;;;;;;7.88;2.75;;;;;;;-146.27;79.42;33255.66;5067123;28;20111;-70
2023/12/20 04:30:43;;;;;;;21.42;3.05;;;;;;;-146.27;79.10;33219.94;5076913;28;20126;-70
2023/12/20 04:33:09;;;;;;;19.38;2.05;;;;;;;-146.27;78.90;33259.63;5069392;28;20051;-69
2023/12/20 04:35:34;;;;;;;14.13;1.90;;;;;;;-146.27;79.24;33215.97;5060944;28;20103;-70
2023/12/20 04:38:00;;;;;;;20.45;3.38;;;;;;;-146.27;78.99;33271.53;5067438;28;20028;-70
2023/12/20 04:40:25;;;;;;;21.58;3.45;;;;;;;-146.27;78.80;33227.88;5076436;28;20475;-70
2023/12/20 04:42:50;;;;;;;21.90;4.85;;;;;;;-146.27;78.81;33261.63;5066456;28;20025;-69
2023/12/20 04:45:16;;;;;;;24.15;2.70;;;;;;;-146.27;78.97;33229.88;5069630;28;20036;-69
2023/12/20 04:47:42;;;;;;;14.60;2.67;;;;;;;-146.27;78.46;33188.19;5071691;28;20054;-70
2023/12/20 04:50:09;;;;;;;22.88;2.47;;;;;;;-146.27;78.33;33235.81;5061667;28;20064;-70
2023/12/20 04:52:35;;;;;;;16.75;2.25;;;;;;;-146.27;79.16;33233.84;5071557;28;20414;-69
2023/12/20 04:55:00;;;;;;;21.77;3.17;;;;;;;-146.27;78.69;33219.94;5070021;28;20028;-69
2023/12/20 04:57:26;;;;;;;18.50;3.15;;;;;;;-146.27;77.68;33124.72;5068786;28;20690;-70
2023/12/20 04:59:51;;;;;;;11.27;2.55;;;;;;;-146.27;78.03;33196.13;5061997;28;20020;-68
2023/12/20 05:02:16;;;;;;;14.13;2.72;;;;;;;-146.27;78.38;33215.97;5061330;28;20131;-70
2023/12/20 05:04:42;;;;;;;20.40;3.40;;;;;;;-146.27;77.89;33160.44;5068263;28;20020;-69
2023/12/20 05:07:07;;;;;;;21.65;3.17;;;;;;;-146.27;78.05;33178.28;5068588;28;20032;-68
2023/12/20 05:09:33;;;;;;;18.98;2.28;;;;;;;-146.27;78.57;33192.16;5064384;28;20126;-70
2023/12/20 05:11:58;;;;;;;14.60;2.88;;;;;;;-146.27;77.97;33114.78;5069267;28;20052;-69
2023/12/20 05:14:25;;;;;;;28.95;3.33;;;;;;;-146.27;78.08;33152.50;5069283;28;20062;-69
2023/12/20 05:16:50;;;;;;;24.15;2.47;;;;;;;-146.27;78.27;33160.44;5067344;28;20143;-69
2023/12/20 05:19:15;;;;;;;14.63;2.75;;;;;;;-146.27;78.73;33184.25;5068209;28;20124;-70
2023/12/20 05:21:41;;;;;;;18.73;3.70;;;;;;;-146.27;79.28;33174.31;5065974;28;20035;-71
2023/12/20 05:24:07;;;;;;;19.10;3.40;;;;;;;-146.27;79.21;33215.97;5069924;28;20028;-70
2023/12/20 05:26:32;;;;;;;15.68;2.47;;;;;;;-146.27;79.06;33227.88;5066724;28;22014;-70
2023/12/20 05:28:57;;;;;;;12.63;2.10;;;;;;;-146.27;78.95;33140.59;5072149;28;20507;-69
2023/12/20 05:31:23;;;;;;;22.95;3.50;;;;;;;-146.27;78.76;33196.13;5063083;28;20052;-70
2023/12/20 05:33:48;;;;;;;25.17;3.70;;;;;;;-146.27;78.05;33081.06;5064749;28;20048;-69
2023/12/20 05:36:15;;;;;;;21.80;3.20;;;;;;;-146.27;78.33;33146.53;5056943;28;20031;-70
2023/12/20 05:38:40;;;;;;;16.38;3.75;;;;;;;-146.27;78.24;33041.38;5064408;28;20021;-69
2023/12/20 05:41:06;;;;;;;19.75;3.13;;;;;;;-146.27;78.08;33128.69;5064475;28;20035;-69
2023/12/20 05:43:31;;;;;;;14.18;2.47;;;;;;;-146.27;79.28;33168.38;5066291;28;20025;-68
2023/12/20 05:45:56;;;;;;;22.55;3.10;;;;;;;-146.27;78.83;33132.66;5069164;28;20056;-68
2023/12/20 05:48:22;;;;;;;20.50;2.38;;;;;;;-146.27;78.58;33094.97;5067117;28;20033;-70
2023/12/20 05:50:48;;;;;;;25.33;4.18;;;;;;;-146.27;78.60;33120.75;5071168;28;20039;-68
2023/12/20 05:53:13;;;;;;;18.83;2.63;;;;;;;-146.27;78.69;33094.97;5064861;28;20534;-69
2023/12/20 05:55:39;;;;;;;23.52;2.75;;;;;;;-146.27;77.56;33057.25;5066704;28;20111;-69
2023/12/20 05:58:05;;;;;;;17.98;2.67;;;;;;;-146.27;77.77;33049.31;5068520;28;20045;-70
2023/12/20 06:00:30;;;;;;;18.38;2.78;;;;;;;-146.27;78.08;33077.09;5060575;28;20036;-70
2023/12/20 06:02:55;;;;;;;25.17;3.60;;;;;;;-146.27;78.35;33075.13;5066796;28;20029;-70
2023/12/20 06:05:21;;;;;;;23.65;2.97;;;;;;;-146.27;77.81;32966.00;5068491;28;20020;-68
2023/12/20 06:07:48;;;;;;;12.98;2.83;;;;;;;-146.27;78.33;33108.84;5067918;28;20130;-69
2023/12/20 06:10:14;;;;;;;21.40;3.15;;;;;;;-146.27;78.75;33073.13;5069080;28;20039;-71
2023/12/20 06:12:39;;;;;;;19.05;2.53;;;;;;;-146.27;79.45;33130.66;5065372;28;20040;-72
2023/12/20 06:15:05;;;;;;;22.45;3.28;;;;;;;-146.27;79.18;33148.53;5066499;28;20490;-71
2023/12/20 06:17:31;;;;;;;20.35;4.10;;;;;;;-146.27;79.09;33096.94;5065855;28;20044;-71
2023/12/20 06:19:57;;;;;;;19.15;3.45;;;;;;;-146.27;78.82;33092.97;5065109;28;20037;-71
2023/12/20 06:22:22;;;;;;;20.42;2.70;;;;;;;-146.27;78.87;33081.06;5067966;28;20434;-71
2023/12/20 06:24:48;;;;;;;13.05;3.13;;;;;;;-146.27;79.11;33096.94;5070178;28;20407;-72
2023/12/20 06:27:13;;;;;;;18.67;3.13;;;;;;;-146.27;78.32;33009.66;5065507;28;20380;-70
2023/12/20 06:29:38;;;;;;;12.50;2.13;;;;;;;-146.27;77.73;33005.69;5070424;28;20020;-73
2023/12/20 06:32:04;;;;;;;22.88;3.95;;;;;;;-146.27;79.20;33140.59;5071175;28;20491;-70
2023/12/20 06:34:30;;;;;;;17.67;3.33;;;;;;;-146.27;78.69;33081.06;5072221;28;20043;-70
2023/12/20 06:36:55;;;;;;;17.48;3.05;;;;;;;-146.27;78.87;33110.81;5070914;28;20706;-71
2023/12/20 06:39:20;;;;;;;15.13;2.75;;;;;;;-146.27;78.63;33116.78;5075508;28;20020;-70
2023/12/20 06:41:46;;;;;;;17.20;2.78;;;;;;;-146.27;78.97;33104.88;5066817;28;20029;-71
2023/12/20 06:44:11;;;;;;;17.60;2.75;;;;;;;-146.27;78.50;33031.47;5070936;28;20029;-71
2023/12/20 06:46:36;;;;;;;16.77;3.97;;;;;;;-146.27;78.62;33089.00;5068999;28;20497;-71
2023/12/20 06:49:02;;;;;;;27.30;2.83;;;;;;;-146.27;78.52;33065.19;5072976;28;20027;-71
2023/12/20 06:51:27;;;;;;;14.27;2.50;;;;;;;-146.27;78.78;33089.00;5071583;28;20135;-71
2023/12/20 06:53:55;;;;;;;26.30;3.30;;;;;;;-146.27;78.71;33063.22;5070639;28;20060;-71
2023/12/20 06:56:20;;;;;;;16.83;1.88;;;;;;;-146.27;78.68;33067.19;5069010;28;20039;-70
2023/12/20 06:58:46;;;;;;;24.15;3.40;;;;;;;-146.27;78.76;33065.19;5070523;28;20036;-71
2023/12/20 07:01:15;;;;;;;19.40;3.58;;;;;;;-146.27;79.48;33128.69;5069636;28;20059;-71
2023/12/20 07:03:41;;;;;;;19.90;2.70;;;;;;;-146.27;78.84;33085.03;5075082;28;20048;-70
2023/12/20 07:06:07;;;;;;;17.70;2.83;;;;;;;-146.27;78.32;33047.34;5070390;28;20082;-70
2023/12/20 07:08:32;;;;;;;18.17;2.53;;;;;;;-146.27;78.45;33122.72;5073163;28;20032;-70
2023/12/20 07:10:58;;;;;;;16.52;2.38;;;;;;;-146.27;78.34;33045.34;5067954;28;20074;-71
2023/12/20 07:13:23;;;;;;;20.38;2.10;;;;;;;-146.27;78.67;33106.84;5062645;28;20500;-70
2023/12/20 07:15:49;;;;;;;25.35;2.88;;;;;;;-146.27;79.01;33132.66;5068442;28;20463;-72
2023/12/20 07:18:14;;;;;;;21.33;2.80;;;;;;;-146.27;78.76;33077.09;5064046;28;20880;-71
2023/12/20 07:20:39;;;;;;;22.63;3.28;;;;;;;-146.27;78.45;33017.56;5070187;28;20477;-72
2023/12/20 07:23:05;;;;;;;19.42;3.10;;;;;;;-146.27;79.11;33144.56;5072476;28;20028;-71
2023/12/20 07:25:32;;;;;;;21.75;2.92;;;;;;;-146.27;79.35;33096.94;5069563;28;20028;-71
2023/12/20 07:27:58;;;;;;;22.38;4.10;;;;;;;-146.27;79.01;33104.88;5070964;28;20107;-71
2023/12/20 07:30:23;;;;;;;19.42;2.92;;;;;;;-146.27;79.69;33154.47;5063937;28;20429;-71
2023/12/20 07:32:49;;;;;;;12.27;2.25;;;;;;;-146.27;79.63;33188.19;5061909;28;20020;-71
2023/12/20 07:35:15;;;;;;;18.75;2.30;;;;;;;-146.27;79.50;33146.53;5069653;28;20032;-72
2023/12/20 07:37:40;;;;;;;17.67;2.78;;;;;;;-146.27;79.26;33132.66;5067492;28;20159;-71
2023/12/20 07:40:07;;;;;;;16.52;2.80;;;;;;;-146.27;79.53;33176.31;5066437;28;20519;-71
2023/12/20 07:42:32;;;;;;;12.15;2.72;;;;;;;-146.27;79.48;33108.84;5068539;28;20126;-71
2023/12/20 07:44:58;;;;;;;17.00;2.65;;;;;;;-146.27;79.26;33065.19;5070088;28;20036;-71
2023/12/20 07:47:25;;;;;;;14.40;2.45;;;;;;;-146.27;79.18;33085.03;5068170;28;20025;-70
2023/12/20 07:49:51;;;;;;;16.48;2.40;;;;;;;-146.27;79.24;33071.16;5066260;28;20044;-71
2023/12/20 07:52:18;;;;;;;24.80;3.47;;;;;;;-146.27;79.35;33057.25;5061016;28;20036;-72
2023/12/20 07:54:43;;;;;;;17.55;3.60;;;;;;;-146.27;79.63;33118.75;5060148;28;20119;-71
2023/12/20 07:57:10;;;;;;;17.92;2.95;;;;;;;-146.27;80.22;33130.66;5084512;28;20020;-71
2023/12/20 07:59:35;;;;;;;22.90;2.72;;;;;;;-146.27;80.68;33120.75;5077201;28;20104;-71
2023/12/20 08:02:01;;;;;;;13.63;2.60;;;;;;;-146.27;80.41;33102.88;5067573;28;20568;-72
2023/12/20 08:04:27;;;;;;;19.98;2.78;;;;;;;-146.27;81.03;33172.34;5070105;28;20020;-71
2023/12/20 08:06:52;;;;;;;15.55;2.50;;;;;;;-146.27;81.10;33152.50;5067387;28;20424;-71
2023/12/20 08:09:17;;;;;;;22.23;2.60;;;;;;;-146.27;80.70;33045.34;5070590;28;20068;-71
2023/12/20 08:11:47;;;;;;;25.42;2.85;;;;;;;-146.27;80.18;33021.53;5071108;28;20086;-71
2023/12/20 08:14:12;;;;;;;19.85;2.95;;;;;;;-146.27;80.49;33081.06;5069079;28;20400;-71
2023/12/20 08:16:38;;;;;;;31.48;3.95;;;;;;;-146.27;80.41;33037.41;5066560;28;20016;-71
2023/12/20 08:19:03;;;;;;;13.70;2.53;;;;;;;-146.27;80.57;33005.69;5064393;28;20040;-72
2023/12/20 08:21:29;;;;;;;17.52;2.72;;;;;;;-146.27;80.27;33021.53;5073477;28;20154;-72
2023/12/20 08:23:55;;;;;;;18.23;2.88;;;;;;;-146.27;79.99;32987.81;5072274;28;20048;-73
2023/12/20 08:26:22;;;;;;;16.52;2.78;;;;;;;-146.27;79.66;32966.00;5069669;28;20256;-71
2023/12/20 08:28:47;;;;;;;20.15;3.65;;;;;;;-146.27;80.31;32985.84;5091876;28;20116;-71
2023/12/20 08:31:16;;;;;;;20.33;3.20;;;;;;;-146.27;79.77;32956.06;5083564;28;20466;-70
2023/12/20 08:33:46;;;;;;;13.20;2.40;;;;;;;-146.27;79.44;32973.94;5084256;28;20099;-70
2023/12/20 08:36:12;;;;;;;15.68;3.28;;;;;;;-146.27;80.40;32973.94;5080101;28;20511;-70
2023/12/20 08:38:38;;;;;;;17.52;2.25;;;;;;;-146.27;80.08;32993.78;5071784;28;20035;-70
2023/12/20 08:41:05;;;;;;;27.05;2.55;;;;;;;-146.27;78.92;32890.59;5070729;28;20473;-71
2023/12/20 08:43:40;;;;;;;26.38;3.03;;;;;;;-146.27;78.90;32866.81;5064905;28;20033;-71
2023/12/20 08:46:06;;;;;;;23.25;2.45;;;;;;;-146.27;78.60;32888.63;5070729;28;20033;-71
2023/12/20 08:48:31;;;;;;;10.52;1.73;;;;;;;-146.27;79.41;32969.97;5068555;28;20439;-71
2023/12/20 08:50:57;;;;;;;16.42;2.72;;;;;;;-146.27;80.17;33027.50;5067491;28;20055;-71
2023/12/20 08:53:22;;;;;;;13.73;2.42;;;;;;;-146.27;78.94;32870.78;5067387;28;20135;-71
2023/12/20 08:55:47;;;;;;;20.88;3.17;;;;;;;-146.27;78.95;32934.25;5068137;28;20027;-71
2023/12/20 08:58:13;;;;;;;23.48;3.10;;;;;;;-146.27;78.74;32914.41;5069534;28;20020;-71
2023/12/20 09:00:39;;;;;;;13.88;2.08;;;;;;;-146.27;79.20;32942.19;5067842;28;20051;-70
2023/12/20 09:03:05;;;;;;;21.10;2.58;;;;;;;-146.27;78.50;32854.91;5071313;28;20036;-71
2023/12/20 09:05:33;;;;;;;12.05;1.95;;;;;;;-146.27;78.33;32876.72;5070664;28;20074;-71
2023/12/20 09:07:58;;;;;;;27.80;3.00;;;;;;;-146.27;78.94;32926.31;5069667;28;20020;-72
2023/12/20 09:10:23;;;;;;;14.52;3.33;;;;;;;-146.27;78.84;32894.56;5063141;28;20038;-72
2023/12/20 09:12:56;;;;;;;15.32;2.22;;;;;;;-146.27;78.92;32914.41;5060638;28;20017;-71
2023/12/20 09:15:25;;;;;;;22.25;2.90;;;;;;;-146.27;79.00;32846.97;5060165;28;20070;-70
2023/12/20 09:17:51;;;;;;;17.08;2.25;;;;;;;-146.27;78.57;32874.75;5065668;28;20024;-72
2023/12/20 09:20:16;;;;;;;15.48;2.33;;;;;;;-146.27;78.65;32852.91;5070773;28;20111;-70
2023/12/20 09:22:43;;;;;;;23.75;2.63;;;;;;;-146.27;78.95;32914.41;5074176;28;20101;-72
2023/12/20 09:25:10;;;;;;;16.38;2.22;;;;;;;-146.27;79.27;32906.47;5058031;28;20017;-71
2023/12/20 09:27:35;;;;;;;23.08;2.05;;;;;;;-146.27;79.06;32831.09;5068527;28;20042;-72
2023/12/20 09:30:01;;;;;;;16.83;2.55;;;;;;;-146.27;79.24;32886.63;5069958;28;20032;-71
2023/12/20 09:32:26;;;;;;;18.40;2.85;;;;;;;-146.27;79.28;32954.09;5071509;28;20028;-70
2023/12/20 09:34:52;;;;;;;17.63;2.30;;;;;;;-146.27;78.75;32835.06;5058971;28;20032;-71
2023/12/20 09:37:17;;;;;;;14.57;2.70;;;;;;;-146.27;78.20;32839.03;5068711;28;20111;-70
2023/12/20 09:39:42;;;;;;;24.60;4.03;;;;;;;-146.27;78.52;32811.25;5069866;28;20031;-70
2023/12/20 09:42:11;;;;;;;18.88;2.45;;;;;;;-146.27;78.71;32858.88;5060985;28;20117;-70
2023/12/20 09:44:36;;;;;;;19.98;2.35;;;;;;;-146.27;78.60;32813.25;5062300;28;20032;-70
2023/12/20 09:47:06;;;;;;;20.38;2.78;;;;;;;-146.27;79.42;32902.50;5068997;28;20482;-69
2023/12/20 09:49:32;;;;;;;20.10;2.67;;;;;;;-146.27;78.38;32815.22;5068120;28;20071;-69
2023/12/20 09:52:00;;;;;;;16.02;3.33;;;;;;;-146.27;78.06;32761.66;5066396;28;20062;-70
2023/12/20 09:54:26;;;;;;;16.98;2.42;;;;;;;-146.27;78.03;32791.41;5059552;28;20065;-72
2023/12/20 09:56:52;;;;;;;17.80;2.42;;;;;;;-146.27;78.42;32823.16;5057263;28;20035;-70
2023/12/20 09:59:17;;;;;;;16.35;2.63;;;;;;;-146.27;77.66;32801.34;5071276;28;20016;-71
2023/12/20 10:01:43;;;;;;;13.98;2.05;;;;;;;-146.27;77.66;32704.13;5078364;28;20031;-70
2023/12/20 10:04:12;;;;;;;21.23;2.38;;;;;;;-146.27;77.72;32803.31;5069015;28;20115;-70
2023/12/20 10:06:41;;;;;;;16.23;2.13;;;;;;;-146.27;77.30;32785.47;5069647;28;20035;-71
2023/12/20 10:09:08;;;;;;;15.45;2.72;;;;;;;-146.27;77.14;32805.31;5069759;28;20028;-70
2023/12/20 10:11:37;;;;;;;15.32;1.70;;;;;;;-146.27;77.42;32787.44;5069809;28;20028;-69
2023/12/20 10:14:03;;;;;;;13.93;2.60;;;;;;;-146.27;76.60;32646.59;5056856;28;20476;-71
2023/12/20 10:16:29;;;;;;;15.85;2.30;;;;;;;-146.27;75.97;32612.88;5069586;28;20020;-70
2023/12/20 10:18:55;;;;;;;22.48;2.47;;;;;;;-146.27;75.87;32680.31;5068927;28;20116;-70
2023/12/20 10:21:22;;;;;;;21.08;2.70;;;;;;;-146.27;77.14;32809.28;5049314;28;20376;-69
2023/12/20 10:23:50;;;;;;;26.08;2.85;;;;;;;-146.27;77.09;32716.03;5057511;28;20451;-70
2023/12/20 10:26:27;;;;;;;22.63;2.15;;;;;;;-146.27;76.38;32652.53;5058728;28;20456;-72
2023/12/20 10:28:54;;;;;;;17.80;2.42;;;;;;;-146.27;77.04;32694.22;5069715;28;20029;-71
2023/12/20 10:31:27;;;;;;;18.73;2.55;;;;;;;-146.27;77.43;32700.16;5069376;28;20024;-71
2023/12/20 10:33:52;;;;;;;27.33;2.80;;;;;;;-146.27;78.46;32823.16;5076248;28;20024;-70
2023/12/20 10:36:18;;;;;;;17.00;2.30;;;;;;;-146.27;78.41;32787.44;5078058;28;20105;-70
2023/12/20 10:38:44;;;;;;;11.15;1.98;;;;;;;-146.27;78.76;32809.28;5057229;28;20119;-71
2023/12/20 10:41:10;;;;;;;21.75;2.45;;;;;;;-146.27;77.67;32660.47;5066909;28;20029;-70
2023/12/20 10:43:37;;;;;;;14.45;2.78;;;;;;;-146.27;78.53;32771.56;5067462;28;20041;-70
2023/12/20 10:46:04;;;;;;;17.20;2.67;;;;;;;-146.27;78.99;32718.00;5067470;28;20016;-71
2023/12/20 10:48:31;;;;;;;17.33;2.15;;;;;;;-146.27;79.58;32801.34;5064021;28;20431;-71
2023/12/20 10:50:58;;;;;;;18.63;2.15;;;;;;;-146.27;79.60;32763.63;5065983;28;20032;-71
2023/12/20 10:53:26;;;;;;;22.38;3.28;;;;;;;-146.27;78.65;32650.56;5066194;28;20169;-70
2023/12/20 10:55:56;;;;;;;20.85;2.45;;;;;;;-146.27;78.84;32763.63;5065911;28;20043;-71
2023/12/20 10:58:24;;;;;;;24.17;2.83;;;;;;;-146.27;78.27;32668.41;5067600;28;20032;-70
2023/12/20 11:00:56;;;;;;;16.92;2.13;;;;;;;-146.27;78.91;32720.00;5068439;28;20024;-70
2023/12/20 11:03:24;;;;;;;16.75;2.50;;;;;;;-146.27;78.65;32696.19;5068671;28;20017;-71